Racecast

AT&T Starr's Mill XC Meet

ONE Church · 5000m · Girls · Compiled · GA

398 runners from 3 divisions

These divisions were run separately. This is how their times compare, not how they finished — the places and scores below were never contested.

View full meet →

Team scores

Place Team Points 12345 67
1 Blessed Trinity (GA) 83 13 15 17 18 20 37 39
2 Harris County (GA) 91 2 5 16 24 44 61 64
3 Harrison (GA) 96 1 4 23 26 42 47 48
4 Starr's Mill (GA) 154 7 9 25 50 63 83 131
5 Hillgrove (Cobb) (GA) 156 10 12 40 45 49 78 107
6 McIntosh (GA) 161 6 30 32 38 55 74 91
7 Lakeside Evans (GA) 175 8 11 14 70 72 73 79
8 Woodward Academy (GA) 189 3 27 29 34 96 139 157
9 Carrollton (GA) 281 33 35 62 65 86 123 177
10 North Paulding (GA) 334 22 52 59 93 108 112 119
11 Decatur (GA) 335 36 58 69 84 88 100 102
12 Cherokee (GA) 386 21 57 66 95 147 149
13 Riverwood International (GA) 404 53 71 87 89 104 122 125
14 Parkview (GA) 411 46 68 94 97 106 110 141
15 Midtown (GA) 426 28 43 105 115 135 164 169
16 Jeff Davis (GA) 454 31 67 109 121 126 129 138
17 Fannin County (GA) 466 85 90 92 98 101 113 154
18 Seckinger (GA) 466 41 51 75 136 163 168
19 Lanier Christian Academy (GA) 523 54 77 118 134 140 155
20 LaGrange (GA) 580 56 99 116 151 158 165 166
21 Woodland (Stockbridge) (GA) 594 60 124 128 130 152 193 194
22 Woodstock (GA) 603 19 81 161 162 180 184 190
23 Atlanta Classical Academy (GA) 613 76 103 132 143 159 198
24 The King's Academy (Crown Athletics) (GA) 625 80 117 120 148 160 171 187
25 Upson Lee (GA) 715 111 114 144 167 179 183 188
26 Mary Persons (GA) 721 133 137 145 150 156 172 174
27 Locust Grove (GA) 742 82 142 170 173 175 176 181
28 Sequoyah (GA) 786 127 146 153 178 182 185 186
29 Collins Hill (GA) 963 189 191 192 195 196 197

Not scored, fewer than five finishers: Augusta Prep (4), Landmark Christian (4), Heard County (4), Bayside Academy (2), North Springs (2), Cambridge (1), Opelika (1), Davidson Fine Arts (1), St. Mary's Academy (1), Decatur (1)

Rating scale ?

Results

Place Athlete Grade School Time Rating Points Actual race
1 Ella Alberici 10 Cambridge (GA) 1 18:21.6 132.0 1
2 Norah Hickerson 9 Harrison (GA) 1 18:43.7 129.4 1 2
3 Caroline Couey 11 Opelika (AL) 1 18:44.2 129.4 3
4 Effie Ward 12 Harris County (GA) 1 18:49.2 128.8 2 4
5 Audrey Andrews 9 Woodward Academy (GA) 1 18:52.2 128.5 3 5
6 Kennedy Troupe 12 Harrison (GA) 2 18:53.6 128.3 4 6
7 Melanie Anderson 11 Harris County (GA) 2 18:53.7 128.3 5 7
8 Livie Rafter 9 McIntosh (GA) 1 19:12.8 126.2 6 8
9 Emmy Pacetti 9 Starr's Mill (GA) 1 19:14.2 126.0 7 9
10 Ella Williams 10 Lakeside Evans (GA) 1 19:24.4 124.9 8 10
11 Beatrix Cooper 10 Starr's Mill (GA) 2 19:28.9 124.4 9 11
12 Shelby Fargason 12 Bayside Academy (AL) 1 19:32.3 124.1 12
13 Virginia Nasmyth 8 Hillgrove (Cobb) (GA) 1 19:37.6 135.1 10 13
14 Abigail Wong 8 Lakeside Evans (GA) 2 19:41.9 134.6 11 1
15 Adelaide Ellis 11 Hillgrove (Cobb) (GA) 2 19:45.6 122.7 12 14
16 Alayna Carter 12 Blessed Trinity (GA) 1 19:50.0 122.2 13 15
17 Eliana Benevides 12 Lakeside Evans (GA) 3 19:50.9 122.1 14 16
18 Rosemary Daumeyer 10 Blessed Trinity (GA) 2 19:58.6 121.3 15 17
19 Sofia Manan 12 Harris County (GA) 3 20:01.0 121.1 16 18
20 Brynn Schlaupitz 12 Blessed Trinity (GA) 3 20:02.4 121.0 17 19
21 Adrina Swift 9 Blessed Trinity (GA) 4 20:03.5 120.8 18 20
22 Addison Eutermoser 11 Woodstock (GA) 1 20:04.3 120.8 19 21
23 Mary Elizabeth Gibbs 12 Blessed Trinity (GA) 5 20:09.8 120.2 20 22
24 Callie Cornelius 12 Cherokee (NJ) 1 20:10.0 120.2 21 23
25 Julia Parsons 11 North Paulding (GA) 1 20:11.2 120.1 22 24
26 Audrey Poole 12 Harrison (GA) 3 20:13.7 119.8 23 25
27 Mary Elizabeth Drew 12 Harris County (GA) 4 20:20.2 119.2 24 26
28 Lainey Perez 8 Starr's Mill (GA) 3 20:20.5 130.3 25 1
29 Isabel Wilson 11 Harrison (GA) 4 20:24.6 118.8 26 27
30 Annie Mainwaring 9 Woodward Academy (GA) 2 20:25.2 118.7 27 28
31 James Roberts 11 Midtown (GA) 1 20:27.2 118.5 28 29
32 Taylor Lonergan 11 Woodward Academy (GA) 3 20:37.4 117.5 29 30
33 Carly Maday 10 McIntosh (GA) 2 20:41.6 117.1 30 31
34 Ellie Kate Marchant 12 Jeff Davis (GA) 1 20:42.3 117.1 31 32
35 Elyse Payne 8 McIntosh (GA) 3 20:45.2 127.7 32 2
36 Blythe Browning 11 Carrollton (GA) 1 20:45.7 116.8 33 33
37 Isabella Sullivan 10 Woodward Academy (GA) 4 20:48.4 116.5 34 34
38 Artie Mills 10 Carrollton (GA) 2 20:53.4 116.0 35 35
39 Olivia Sawyer 12 Decatur (TX) 1 20:56.4 115.8 36 36
40 Addison Whitney 11 Blessed Trinity (GA) 6 20:59.5 115.5 37 37
41 Maddie Will 11 McIntosh (GA) 4 21:00.6 115.4 38 38
42 Claire Weldin 9 Blessed Trinity (GA) 7 21:02.4 115.2 39 39
43 Joey Vagedes 10 Blessed Trinity (GA) 8 21:02.5 115.2 40
44 Cadence Maxwell 10 Hillgrove (Cobb) (GA) 3 21:03.6 115.1 40 41
45 Melissa Barnes 11 Seckinger (GA) 1 21:05.8 114.9 41 42
46 Anna Griffin 12 Davidson Fine Arts (GA) 1 21:06.1 114.9 43
47 Marlene Hogue 12 Harrison (GA) 5 21:08.5 114.7 42 44
48 Catherine Eason 9 Midtown (GA) 2 21:11.4 114.4 43 45
49 Janelle Wells 11 Harris County (GA) 5 21:16.5 113.9 44 46
50 Abigail Wnek 10 Hillgrove (Cobb) (GA) 4 21:23.1 113.3 45 47
51 Lily Wethington-Mercer 11 Parkview (GA) 1 21:24.5 113.2 46 48
52 Maddie Hughes 11 Harrison (GA) 6 21:24.5 113.2 47 49
53 Peyton Reeves 12 Harrison (GA) 7 21:26.2 113.1 48 2
54 Morgan Walburn 11 Hillgrove (Cobb) (GA) 5 21:28.4 112.9 49 50
55 Allison Moore 12 Starr's Mill (GA) 4 21:29.5 112.8 50 51
56 Alanna Adames 12 Seckinger (GA) 2 21:31.1 112.7 51 52
57 Zuri Theiss 11 Harrison (GA) 8 21:31.7 112.6 3
58 Caroline Clancy 11 Harrison (GA) 9 21:31.8 112.6 4
59 Dampier Evelyn 10 North Paulding (GA) 2 21:33.4 112.4 52 53
60 Abigail Moore 10 Augusta Prep (GA) 1 21:33.6 112.4 54
61 Ansleigh Smith 9 Bayside Academy (AL) 2 21:34.1 112.4 55
62 Samantha Below 10 Riverwood International (GA) 1 21:35.6 112.2 53 56
63 Charlotte Hamilton 11 Lanier Christian Academy (GA) 1 21:37.1 112.1 54 57
64 Liv McClelland 11 Harrison (GA) 10 21:38.2 112.0 5
65 Jadeyn Harvey 12 McIntosh (GA) 5 21:38.7 112.0 55 58
66 Katie Hill 9 LaGrange (GA) 1 21:41.2 111.8 56 59
67 Charlie Grogan 11 Cherokee (NJ) 2 21:42.1 111.7 57 60
68 Laura Durbin 12 Decatur (TX) 2 21:43.7 111.6 58 61
69 Morgan Widner 11 North Paulding (GA) 3 21:46.0 111.4 59 62
70 Eliana Weldekiddan 12 Woodland (Stockbridge) (GA) 1 21:48.0 111.2 60 63
71 Isabel DeHart 11 Harris County (GA) 6 21:48.2 111.2 61 64
72 Juliet Browning 11 Carrollton (GA) 3 21:50.7 111.0 62 65
73 Ana Miller 12 Starr's Mill (GA) 5 21:51.0 110.9 63 66
74 Lila Klein 10 Harris County (GA) 7 21:53.0 110.8 64 67
75 Ashley Odom 10 Blessed Trinity (GA) 9 21:53.9 110.7 6
76 Marisol Colorado 12 Carrollton (GA) 4 21:55.1 110.6 65 68
77 Zoe Mitchell 11 Cherokee (NJ) 3 21:55.9 110.5 66 69
78 Hannah Higgins 12 North Springs (GA) 1 21:57.8 110.4 70
79 Avery Haley 11 Jeff Davis (GA) 2 21:58.8 110.3 67 71
80 Sarah Barnett 10 Parkview (GA) 2 22:03.9 109.8 68 72
81 Azul Alvarez 9 Harrison (GA) 11 22:06.5 109.6 3
82 Sydney Powers 12 Decatur (TX) 3 22:10.1 109.3 69 73
83 Isabella Cryer 11 Blessed Trinity (GA) 10 22:10.6 109.3 7
84 Callie McGrath 10 Blessed Trinity (GA) 11 22:11.9 109.2 8
85 Brinkley Owen 9 Harrison (GA) 12 22:15.1 108.9 4
86 Madison Wimer 10 Lakeside Evans (GA) 4 22:17.0 108.8 70 74
87 Samantha Mitchell 12 Harrison (GA) 13 22:19.6 108.6 9
88 Elisabeth Murphy 9 Riverwood International (GA) 2 22:19.8 108.6 71 75
89 Angelina Detwiler 9 Lakeside Evans (GA) 5 22:23.3 108.3 72 76
90 Ava Watford 12 Blessed Trinity (GA) 12 22:24.5 108.2 10
91 Carolyn Cross 12 Lakeside Evans (GA) 6 22:28.3 107.9 73 77
92 Sydney Maranzano 12 McIntosh (GA) 6 22:30.6 107.7 74 78
93 Aryle Day 11 Seckinger (GA) 3 22:32.4 107.5 75 11
94 Mary Elizabeth Kirkland 10 Atlanta Classical Academy (GA) 1 22:32.9 107.5 76 79
95 Madison Crannell 10 Lanier Christian Academy (GA) 2 22:35.1 107.3 77 80
96 Natalie Hall 11 Hillgrove (Cobb) (GA) 6 22:35.5 107.3 78 81
97 Kimberly Mullins 9 Lakeside Evans (GA) 7 22:35.9 107.3 79 82
98 Savannah Casey 10 The King's Academy (Crown Athletics) (GA) 1 22:38.7 107.0 80 83
99 Marlee Birak 11 Lakeside Evans (GA) 8 22:38.8 107.0 84
100 Kaylee Koblasz 11 Woodstock (GA) 2 22:38.9 107.0 81 85
101 Ansley Burns 11 Harrison (GA) 14 22:39.8 106.9 12
102 Eleanor Wilde 11 Locust Grove (GA) 1 22:40.4 106.9 82 86
103 Kate Airhart 9 Starr's Mill (GA) 6 22:40.5 106.9 83 87
104 Amelia Stoner 9 Decatur (TX) 4 22:41.4 106.8 84 88
105 Sydney Ford 11 Fannin County (GA) 1 22:42.1 106.8 85 89
106 Kimber Steele 10 Carrollton (GA) 5 22:42.7 106.7 86 90
107 Denise Figueroa 12 Harrison (GA) 15 22:43.5 106.7 13
108 Ansley Gossett 11 Riverwood International (GA) 3 22:44.3 106.6 87 91
109 Torrey Yeomans 9 Harrison (GA) 16 22:46.1 106.5 5
110 Giselle Manfredi 10 Blessed Trinity (GA) 13 22:46.7 106.4 14
111 Ily Herman 11 Decatur (TX) 5 22:49.6 106.2 88 92
112 Vivian Einck 9 Riverwood International (GA) 4 22:50.1 106.2 89 15
113 Garin Rickenbaker 11 Fannin County (GA) 2 22:50.8 106.1 90 93
114 Gianna Collins 10 Landmark Christian (GA) 1 22:52.8 105.9 16
115 Charlotte Bullock 9 Lakeside Evans (GA) 9 22:52.9 105.9 17
116 Autumn Thompson 9 McIntosh (GA) 7 22:53.6 105.9 91 94
117 Annalina Federico 10 Harrison (GA) 17 22:54.4 105.8 18
118 Lola Temples 9 Fannin County (GA) 3 22:55.0 105.8 92 19
119 Peyton Gurley 11 Harrison (GA) 18 22:55.2 105.8 20
120 Natalya Collins 11 Landmark Christian (GA) 2 22:55.6 105.7 21
121 Rian Goodrich 10 North Paulding (GA) 4 22:56.1 105.7 93 95
122 Anna Underwood 9 McIntosh (GA) 8 22:56.8 105.6 96
123 Katelyn Harris 9 Lakeside Evans (GA) 10 22:57.8 105.6 97
124 Anna Tosini 12 Parkview (GA) 3 22:58.2 105.5 94 98
125 Shayla Lane 9 Cherokee (NJ) 4 22:58.2 105.5 95 99
126 Grace Williams 10 Lakeside Evans (GA) 11 22:58.9 105.5 22
127 Calleigh Kirschner 12 Woodward Academy (GA) 5 23:03.5 105.1 96 100
128 Kalea Calvillo 10 Parkview (GA) 4 23:04.2 105.1 97 101
129 Erin Murphy 11 Harrison (GA) 19 23:04.6 105.0 23
130 Rylee Hall 10 Harris County (GA) 8 23:07.1 104.8 24
131 Kensley Picklesimer 11 Fannin County (GA) 4 23:12.4 104.4 98 102
132 Grace Johnson 11 LaGrange (GA) 2 23:13.6 104.4 99 103
133 Maren Tetreault 11 Blessed Trinity (GA) 14 23:16.7 104.1 25
134 Norah Bell 9 Decatur (TX) 6 23:17.3 104.1 100 104
135 Charlotte Vallejo 9 Fannin County (GA) 5 23:18.1 104.0 101 105
136 Greer Madsen 9 Decatur (TX) 7 23:18.2 104.0 102 6
137 Arden Huffman 9 Atlanta Classical Academy (GA) 2 23:20.6 103.8 103 106
138 Scarlett Graber 12 Riverwood International (GA) 5 23:21.3 103.8 104 107
139 Emmaline Krogh 12 Harrison (GA) 20 23:21.5 103.8 26
140 Maddie Paga 9 Midtown (GA) 3 23:26.2 103.4 105 108
141 Natalie Cabrera 11 Parkview (GA) 5 23:27.2 103.3 106 109
142 Amelia Wood 10 McIntosh (GA) 9 23:27.9 103.3 27
143 Brooklynn Carey 9 Hillgrove (Cobb) (GA) 7 23:28.9 103.2 107 110
144 Charis Weldon 11 North Paulding (GA) 5 23:34.4 102.8 108 111
145 Laysie Lewis 11 Jeff Davis (GA) 3 23:36.4 102.7 109 112
146 Maya Saldana 10 Parkview (GA) 6 23:37.7 102.6 110 113
147 McKenzie Arp 9 Heard County (GA) 1 23:37.8 102.6 114
148 Mia Schaefer 10 Upson Lee (GA) 1 23:39.3 102.5 111 115
149 Madelynn Mendoza 12 North Paulding (GA) 6 23:39.3 102.5 112 116
150 Bella Burns 9 Harrison (GA) 21 23:41.5 102.3 7
151 Lana Hicks 10 Fannin County (GA) 6 23:43.2 102.2 113 117
152 Brie Montano 12 Upson Lee (GA) 2 23:45.3 102.0 114 118
153 Saanvi Purnell 9 Harrison (GA) 22 23:45.4 102.0 8
154 Petal Williams 9 Midtown (GA) 4 23:45.8 102.0 115 119
155 Kalynne Ehret 11 LaGrange (GA) 3 23:46.0 102.0 116 120
156 Avery Casey 12 The King's Academy (Crown Athletics) (GA) 2 23:48.6 101.8 117 121
157 Addison Harmon 12 Lanier Christian Academy (GA) 3 23:50.0 101.7 118 122
158 Sophe Brenner 10 Heard County (GA) 2 23:50.2 101.7 123
159 Reese Goodrich 8 North Paulding (GA) 7 23:50.6 111.2 119 28
160 Aila Casey 9 The King's Academy (Crown Athletics) (GA) 3 23:52.4 101.5 120 124
161 Allison Chapman 12 North Paulding (GA) 8 23:53.8 101.4 125
162 Jordana Valdez 11 Hillgrove (Cobb) (GA) 8 23:54.0 101.4 29
163 Annie Ballard 10 North Paulding (GA) 9 23:55.4 101.3 30
164 Marley Powell 11 Jeff Davis (GA) 4 23:57.7 101.2 121 126
165 Lila Marsh 8 Augusta Prep (GA) 2 24:00.3 110.4 127
166 Sadie Marley 10 Lakeside Evans (GA) 12 24:01.1 100.9 31
167 Hannah Sohmer 10 Riverwood International (GA) 6 24:01.1 100.9 122 128
168 Alyson Alexander 9 Carrollton (GA) 6 24:05.8 100.6 123 129
169 Naiila Williams 11 Woodland (Stockbridge) (GA) 2 24:09.0 100.4 124 130
170 Joey Rubenstein 12 Riverwood International (GA) 7 24:11.0 100.2 125 131
171 Olivia Ussery 11 Harrison (GA) 23 24:11.2 100.2 32
172 Tyler Doherty 10 Harrison (GA) 24 24:11.5 100.2 33
173 Jade Franco 9 Jeff Davis (GA) 5 24:12.9 100.1 126 132
174 Kylie Brooks 10 Harrison (GA) 25 24:13.1 100.1 34
175 Bailey Greene 11 Sequoyah (GA) 1 24:13.8 100.0 127 35
176 Marina Santos 12 Riverwood International (GA) 8 24:15.0 100.0 133
177 Hannah James 12 Lakeside Evans (GA) 13 24:15.0 100.0 36
178 Raegan Mondi 8 Lakeside Evans (GA) 14 24:16.0 109.2 37
179 Kadiata Diallo 10 Woodland (Stockbridge) (GA) 3 24:16.6 99.8 128 134
180 Isabelle Daniel 12 Blessed Trinity (GA) 15 24:17.9 99.8 38
181 Christina Wilcox 12 Jeff Davis (GA) 6 24:18.4 99.7 129 135
182 Marlee Rafter 11 McIntosh (GA) 10 24:20.0 99.6 136
183 Kaylee Bachman 10 Woodland (Stockbridge) (GA) 4 24:21.4 99.5 130 137
184 Caroline Simon 10 Lakeside Evans (GA) 15 24:22.1 99.5 39
185 Chloe Hunter 10 Starr's Mill (GA) 7 24:23.9 99.3 131 138
186 Margaret Adams 11 Atlanta Classical Academy (GA) 3 24:25.2 99.3 132 139
187 Campbell Causey 10 Mary Persons (GA) 1 24:26.9 99.2 133 140
188 Brooklyn Gleason 10 Harrison (GA) 26 24:29.8 98.9 40
189 Ellie Hammonds 10 Lanier Christian Academy (GA) 4 24:31.3 98.8 134 141
190 Zoe Bailon 10 Harris County (GA) 9 24:32.7 98.8 142
191 Brielle LaBar 9 Hillgrove (Cobb) (GA) 9 24:33.8 98.7 9
192 Riley Duggan 9 Decatur (TX) 8 24:34.8 98.6 10
193 Maya Griggs 9 Midtown (GA) 5 24:34.8 98.6 135 11
194 Anna Kellogg 10 Seckinger (GA) 4 24:36.7 98.5 136 143
195 Ella Kemper 10 Mary Persons (GA) 2 24:37.9 98.4 137 144
196 Julianne Romine 11 Blessed Trinity (GA) 16 24:39.3 98.3 41
197 Analiz Balderas 9 Blessed Trinity (GA) 17 24:39.3 98.3 12
198 Sydney Hayes 9 Hillgrove (Cobb) (GA) 10 24:40.1 98.3 13
199 Jireh Gonzalez 9 Hillgrove (Cobb) (GA) 11 24:41.5 98.2 14
200 Aurie Taylor 11 Jeff Davis (GA) 7 24:41.6 98.2 138 145
201 Madeline Render 10 Starr's Mill (GA) 8 24:44.1 98.0 42
202 Nola Parsons 9 Woodward Academy (GA) 6 24:44.7 98.0 139 146
203 Georgia Debow 11 North Paulding (GA) 10 24:45.1 97.9 43
204 Mahika Kumar 12 McIntosh (GA) 11 24:46.7 97.8 44
205 Cylee Callison 11 North Paulding (GA) 11 24:48.9 97.7 45
206 Jocelyn Fetzer 10 Lanier Christian Academy (GA) 5 24:51.5 97.5 140 147
207 Claire Hicks 11 Blessed Trinity (GA) 18 24:52.4 97.4 46
208 Sofia Wydeven 10 Parkview (GA) 7 24:53.9 97.3 141 47
209 McKenna Locklar 10 Harris County (GA) 10 24:54.2 97.3 48
210 Lilah Crawley 10 Locust Grove (GA) 2 24:58.1 97.1 142 148
211 Lindy Roberts 10 Atlanta Classical Academy (GA) 4 24:59.2 97.0 143 149
212 Samantha Montano 9 Upson Lee (GA) 3 25:00.3 96.9 144 150
213 Kaydence Gardner 12 Harris County (GA) 11 25:00.5 96.9 49
214 Carlie Davis 11 Mary Persons (GA) 3 25:02.8 96.8 145 151
215 Scarlett Meehling 11 Harrison (GA) 27 25:04.5 96.7 50
216 Ella Baker 11 Sequoyah (GA) 2 25:05.9 96.6 146 51
217 Emma Misner 11 Cherokee (NJ) 5 25:06.3 96.6 147 152
218 Lanie Chavers 10 Harrison (GA) 28 25:06.7 96.5 52
219 Abigail Rice 12 The King's Academy (Crown Athletics) (GA) 4 25:07.4 96.5 148 153
220 Sydney Fahy 11 Cherokee (NJ) 6 25:08.4 96.4 149 154
221 Bella Patel 12 Riverwood International (GA) 9 25:10.7 96.3 53
222 Jordyn Butler 10 Harris County (GA) 12 25:11.4 96.2 54
223 Ella Martin 12 Mary Persons (GA) 4 25:12.1 96.2 150 155
224 Oriana Liebig 8 Lakeside Evans (GA) 16 25:12.2 105.2 55
225 Katelyn Strum 11 Harrison (GA) 29 25:14.4 96.0 56
226 Jazmyne Lewis 10 LaGrange (GA) 4 25:16.0 95.9 151 156
227 Camille Butler 9 Woodland (Stockbridge) (GA) 5 25:17.3 95.8 152 157
228 YAHAN SU 12 Augusta Prep (GA) 3 25:17.9 95.8 158
229 Marleigh Jones 9 North Paulding (GA) 12 25:19.1 95.7 57
230 Haley Reed 9 Sequoyah (GA) 3 25:19.5 95.7 153 15
231 Ava Acker 12 Fannin County (GA) 7 25:20.5 95.7 154 159
232 Mylie Hensage 12 Riverwood International (GA) 10 25:21.8 95.6 160
233 Gracey Martin-Eriamiatoe 9 Hillgrove (Cobb) (GA) 12 25:22.8 95.5 16
234 Giovanna Vasconselos 11 North Paulding (GA) 13 25:23.6 95.5 58
235 Ellise Petersen 10 Harrison (GA) 30 25:24.5 95.4 59
236 Grace Cox 12 Lanier Christian Academy (GA) 6 25:27.3 95.2 155 161
237 Autumn Johnson 9 Parkview (GA) 8 25:28.1 95.2 17
238 Ella Seetoo 11 Decatur (TX) 9 25:28.5 95.2 60
239 Lilly Colley 12 Mary Persons (GA) 5 25:28.6 95.1 156 162
240 Jaden Mosca-Bolton 9 Woodward Academy (GA) 7 25:28.7 95.1 157 163
241 Madison Kieffer 10 Harris County (GA) 13 25:31.2 95.0 61
242 Graysie Lewis 9 Jeff Davis (GA) 8 25:33.6 94.8 164
243 Hollie Sanford 9 Woodward Academy (GA) 8 25:34.2 94.8 18
244 Madison Thomas 10 LaGrange (GA) 5 25:35.0 94.8 158 165
245 Addie Huffman 11 Atlanta Classical Academy (GA) 5 25:35.4 94.7 159 166
246 Arianna Peterman 11 The King's Academy (Crown Athletics) (GA) 5 25:37.6 94.6 160 167
247 Ava Voynich 10 Harris County (GA) 14 25:42.2 94.3 62
248 Addison Jarvis 11 Woodstock (GA) 3 25:44.9 94.1 161 168
249 Demetria Payne 11 Augusta Prep (GA) 4 25:44.9 94.1 169
250 Mia Shackelford 9 Woodstock (GA) 4 25:46.9 94.0 162 63
251 Anjelica Aguirre 10 Seckinger (GA) 5 25:47.9 94.0 163 64
252 Annie Wang 10 McIntosh (GA) 12 25:48.4 93.9 65
253 Liberty Hammond 10 Parkview (GA) 9 25:48.5 93.9 19
254 Leia Weber 11 Starr's Mill (GA) 9 25:51.3 93.8 66
255 Priya Patel 9 Parkview (GA) 10 25:53.2 93.6 20
256 Caroline O'Fallon 10 Blessed Trinity (GA) 19 25:54.0 93.6 67
257 Ella Knapp 11 Starr's Mill (GA) 10 25:56.7 93.4 68
258 Carmela Marra 12 Midtown (GA) 6 25:58.1 93.3 164 69
259 Bailey Hall 8 Harris County (GA) 15 25:58.3 93.3 21
260 Layla Martin 12 LaGrange (GA) 6 25:58.7 93.3 165 170
261 Gracie Collins 10 Starr's Mill (GA) 11 26:00.6 93.2 70
262 Kim Czaplicki 10 Blessed Trinity (GA) 20 26:03.4 93.0 71
263 Blake Burke 10 Hillgrove (Cobb) (GA) 13 26:03.5 93.0 72
264 Meron Debebe 10 Parkview (GA) 11 26:03.5 93.0 73
265 Harrah Thurman 11 LaGrange (GA) 7 26:07.2 92.8 166 171
266 Savannah Carswell 9 McIntosh (GA) 13 26:11.5 92.6 22
267 Isabella Eubanks 10 Upson Lee (GA) 4 26:12.3 92.5 167 172
268 Reagan Gardner 10 Harris County (GA) 16 26:13.8 92.4 74
269 Hannah Stancil 10 Decatur (TX) 10 26:14.1 92.4 75
270 Kimberly Antoun 10 Harrison (GA) 31 26:14.1 92.4 76
271 Ava Morgan 12 North Paulding (GA) 14 26:14.6 92.4 77
272 TifeOluwa Olaleye 12 Seckinger (GA) 6 26:14.8 92.3 168 78
273 Gi Rogers 11 Starr's Mill (GA) 12 26:15.6 92.3 79
274 Kendall Dalton 12 North Paulding (GA) 15 26:16.8 92.2 80
275 Cate Simmons 11 Starr's Mill (GA) 13 26:17.2 92.2 81
276 Rachel Sannuti 11 Blessed Trinity (GA) 21 26:21.7 91.9 82
277 Ryland Duda 10 Decatur (TX) 11 26:23.6 91.8 83
278 Olivia Spruill 9 Hillgrove (Cobb) (GA) 14 26:27.5 91.6 23
279 Julie Oliver-de Rosset 9 Midtown (GA) 7 26:31.9 91.4 169 24
280 Kaydee Armstrong 10 Locust Grove (GA) 3 26:32.8 91.3 170 173
281 Lily Brown 9 Decatur (TX) 12 26:36.1 91.1 25
282 Gabi Zebroski 10 Landmark Christian (GA) 3 26:36.7 91.1 84
283 Magdalene Hoar 10 The King's Academy (Crown Athletics) (GA) 6 26:44.0 90.7 171 174
284 Olivia Boehnlein 12 Lakeside Evans (GA) 17 26:47.6 90.5 85
285 Sydnee Harrison 10 LaGrange (GA) 8 26:50.4 90.3 86
286 Henley Farmer 9 Mary Persons (GA) 6 26:52.2 90.2 172 26
287 Mary Claire Shackelford 9 Parkview (GA) 12 26:52.6 90.2 175
288 Violet Frediani 11 Decatur (TX) 13 26:54.5 90.1 87
289 Lainey Crawley 9 Locust Grove (GA) 4 26:54.7 90.1 173 176
290 Hilary Manson 12 Harrison (GA) 32 26:55.5 90.0 88
291 Carli Finch 9 Mary Persons (GA) 7 26:55.9 90.0 174 27
292 Eva Wilde 8 Locust Grove (GA) 5 26:59.3 98.2 175 89
293 Fiona Handley 10 Midtown (GA) 8 27:01.9 89.7 90
294 Queen Brisbon 9 Locust Grove (GA) 6 27:08.7 89.3 176 177
295 Anna Malec 9 Blessed Trinity (GA) 22 27:11.1 89.2 91
296 Emma Chaffee 11 North Paulding (GA) 16 27:12.3 89.1 92
297 Chloe Goodsell 11 Blessed Trinity (GA) 23 27:14.0 89.0 93
298 Catherine Kleeman 9 Blessed Trinity (GA) 24 27:15.5 88.9 28
299 Chloe Kitchens 12 Harrison (GA) 33 27:16.1 88.9 94
300 Katherine Deatherage 9 Carrollton (GA) 7 27:17.0 88.8 177 178
301 Gracie McCrobie 11 Sequoyah (GA) 4 27:17.4 88.8 178 95
302 Vera Winter 10 McIntosh (GA) 14 27:17.8 88.8 96
303 Taylor Seymour 10 Parkview (GA) 13 27:19.5 88.7 97
304 Kloey Smith 10 Upson Lee (GA) 5 27:20.8 88.6 179 179
305 Paisley Thomas 9 North Paulding (GA) 17 27:21.4 88.6 98
306 River Jordan 9 Woodstock (GA) 5 27:25.6 88.4 180 180
307 Lula Devitt 11 Locust Grove (GA) 7 27:26.1 88.3 181 181
308 Stephanie Arredondo 10 Parkview (GA) 14 27:26.5 88.3 99
309 Caitlin Stein 11 Harrison (GA) 34 27:30.2 88.1 100
310 Quinn McGhee 9 Sequoyah (GA) 5 27:33.3 88.0 182 29
311 Ella Baerman 10 Decatur (TX) 14 27:35.1 87.9 101
312 Danilyn Holloway 11 Heard County (GA) 3 27:36.1 87.8 182
313 Somora Burgher 11 Locust Grove (GA) 8 27:38.0 87.7 183
314 Finley Sockwell 10 Riverwood International (GA) 11 27:39.6 87.6 102
315 Leah Fletcher 10 Heard County (GA) 4 27:41.1 87.6 184
316 Rachel Meyer 9 McIntosh (GA) 15 27:42.7 87.5 30
317 Maggie Ou 12 Upson Lee (GA) 6 27:49.0 87.1 183 185
318 Danni Harman 8 Harris County (GA) 17 27:49.9 87.1 31
319 Aubrie Leblang 12 Starr's Mill (GA) 14 27:54.5 86.8 103
320 Tara Blechinger 11 Lakeside Evans (GA) 18 27:57.1 86.7 104
321 Sejal Avutu 9 Decatur (TX) 15 28:04.9 86.3 32
322 Mya Gahan 11 Hillgrove (Cobb) (GA) 15 28:09.3 86.1 105
323 Caroline Marshall 9 Blessed Trinity (GA) 25 28:13.8 85.9 33
324 Noa Rho 10 Carrollton (GA) 8 28:25.7 85.3 107
325 Avery Lester 10 Harrison (GA) 35 28:27.1 85.2 108
326 Sydney Meehling 10 Harrison (GA) 36 28:27.4 85.2 109
327 Claire Jordan 12 Harrison (GA) 37 28:29.6 85.1 110
328 Lara Otico 11 McIntosh (GA) 16 28:33.9 84.9 111
329 Belle Henson 10 Harrison (GA) 38 28:41.0 84.5 112
330 Michelle Garcia 10 Woodstock (GA) 6 28:43.3 84.4 184 113
331 Sloane Mcghee 12 Sequoyah (GA) 6 28:54.3 83.9 185 114
332 Riley Weissgerber 11 Sequoyah (GA) 7 29:05.0 83.3 186 115
333 Lindyann Jelley 9 Mary Persons (GA) 8 29:05.8 83.3 34
334 Amelia Gale 12 LaGrange (GA) 9 29:11.6 83.0 186
335 Kylie Reeve 11 Harrison (GA) 39 29:11.8 83.0 116
336 Sarai Rahman 9 Decatur (TX) 16 29:12.5 83.0 35
337 Ai Ha 12 St. Mary's Academy (CA) 1 29:18.8 82.7 117
338 Olivia Waits 11 Locust Grove (GA) 9 29:20.4 118
339 Katherine Hull 9 Mary Persons (GA) 9 29:20.7 82.6 36
340 Nuha Muneer 11 Decatur (TX) 17 29:24.0 82.4 119
341 Vivienne Nusz 10 Riverwood International (GA) 12 29:27.0 82.3 120
342 Megan Czohara 11 Blessed Trinity (GA) 26 29:27.0 121
343 Ellyce Bartek 10 Starr's Mill (GA) 15 29:27.4 82.3 122
344 Lily Balogun 11 Woodward Academy (GA) 9 29:37.8 81.8 123
345 Olivia Coty 12 Harrison (GA) 40 29:40.9 81.7 124
346 Abigail Kimble 9 Harrison (GA) 41 29:42.0 81.6 37
347 Abigail Stire 10 The King's Academy (Crown Athletics) (GA) 7 29:46.0 81.4 187 125
348 Charlotte Weissgerber 10 Sequoyah (GA) 8 29:46.6 81.4 126
349 Lauryn Senzon 11 Harrison (GA) 42 29:48.5 81.3 127
350 Abby Nathan 9 Woodward Academy (GA) 10 29:51.3 81.2 38
351 Camden Walker 10 Harris County (GA) 18 29:58.4 80.9 128
352 Madelyn Stewart 10 Harris County (GA) 19 29:59.5 80.8 129
353 Hayden Knox 11 Harrison (GA) 43 30:01.1 80.8 130
354 Addison Costello 12 Hillgrove (Cobb) (GA) 16 30:13.9 80.2 131
355 Laila Foster 11 Upson Lee (GA) 7 30:24.8 79.7 188 132
356 Xumaya Olguin-Francis 12 Collins Hill (GA) 1 30:28.4 79.5 189 133
357 Claire Beckham 10 The King's Academy (Crown Athletics) (GA) 8 30:38.8 79.1 134
358 Isabelle Taliercio 11 Harrison (GA) 44 30:50.7 78.6 135
359 Laurel Baker 8 Woodstock (GA) 7 30:54.5 78.4 190 136
360 Gabrielle Louimeus 10 Collins Hill (GA) 2 30:55.2 78.4 191 137
361 Morgan Bailey 9 Harrison (GA) 45 30:55.3 78.4 39
362 Anna Grace Cryer 10 Blessed Trinity (GA) 27 30:58.7 138
363 Olivia Maddox 11 The King's Academy (Crown Athletics) (GA) 9 30:59.6 78.2 139
364 Mary Briceno 12 Hillgrove (Cobb) (GA) 17 31:11.4 140
365 Ella Wilkins 10 Riverwood International (GA) 13 31:18.0 77.4 141
366 Nethra Thotakura 9 Woodward Academy (GA) 11 31:20.5 77.3 40
367 Addison Head 10 Fannin County (GA) 8 31:23.5 77.2 142
368 Shrija Samanta 11 Collins Hill (GA) 3 31:23.9 77.2 192 143
369 Allie Maiberger 9 Woodward Academy (GA) 12 31:24.1 77.2 41
370 Irina Allen 10 LaGrange (GA) 10 31:26.5 77.1 144
371 Stella Florence 12 Decatur (TX) 1 31:29.3 77.0 145
372 Navya Thotakura 9 Woodward Academy (GA) 13 31:29.5 77.0 42
373 Brielle Brown 9 Woodland (Stockbridge) (GA) 6 31:48.1 76.2 193 187
374 Navi Comegys 9 Woodland (Stockbridge) (GA) 7 31:49.5 76.2 194 188
375 Londyn Jones 9 Sequoyah (GA) 9 32:10.6 75.3 43
376 Deverianna Matthis 9 Locust Grove (GA) 10 32:32.9 74.5 146
377 Merigail Fair 9 Mary Persons (GA) 10 33:09.9 73.1 44
378 Irene Ou 11 Upson Lee (GA) 8 33:20.0 72.7 189
379 Adelynn Chen 9 Collins Hill (GA) 4 33:23.5 72.6 195 45
380 Malia Sabree 9 Woodward Academy (GA) 14 33:34.3 72.2 46
381 Ava Castaneda 9 Parkview (GA) 15 33:50.1 47
382 Claire Saxon 10 Fannin County (GA) 9 34:27.2 70.3 147
383 Indya Manuel 9 Locust Grove (GA) 11 34:35.9 70.1 148
384 Kylee Bohnert 9 Fannin County (GA) 10 34:44.9 69.8 149
385 Lea Herzig 10 Parkview (GA) 16 35:18.5 68.7 150
386 Evelyn Surivan 9 Collins Hill (GA) 5 35:46.5 67.8 196 48
387 Quyen Le 10 Collins Hill (GA) 6 35:54.0 67.5 197 151
388 Reagan Liddell 10 North Springs (GA) 2 36:15.2 66.9 152
389 Isabella Perez 11 Parkview (GA) 17 36:38.9 66.1 153
390 Anandi Damle 9 Riverwood International (GA) 14 36:43.4 66.0 49
391 Lucy Guyette 9 Riverwood International (GA) 15 36:46.5 65.9 50
392 Neve Marston 12 Decatur (TX) 18 36:55.4 65.7 154
393 Marica White 10 LaGrange (GA) 11 37:07.7 65.3 155
394 Christina Crawford 10 Landmark Christian (GA) 4 37:37.1 64.4 156
395 Alyssa Fowler 9 Mary Persons (GA) 11 37:37.2 64.4 51
396 Lucy Hearne 10 Atlanta Classical Academy (GA) 6 38:24.6 198 157
397 Mariah Whitfield 9 Locust Grove (GA) 12 38:32.6 62.9 158
398 Madeleine Amadi 9 Parkview (GA) 18 42:03.8 57.6 52